Archival Weather

Wadi Al Dawasir

Wadi Al Dawasir, Saudi Arabia (OEWD)

Report from: Thursday, February 22, 2024 4:00 AM +03
Current time: Wednesday, April 24, 2024 9:18 PM +03

Current weather – Weather history – Daily summaries
Weather forecast

Temperature18.0°C (64.4°F)
Dew point-2.0°C (28.4°F)
Winds 15 kts (7.7 m/s, 17.3 mph) East-Southeast (110°)
Clouds Sky clear
Altimeter30.06 in.Hg (1018 mB)
Relative humidity26 %
Density altitude278 ft. (85 m)
Remarks Ceiling and visibility OK
Flight conditions Visual Meteorological Conditions
Raw dataOEWD 220100Z 11015KT CAVOK 18/M02 Q1018
An error has occurred. This application may no longer respond until reloaded. Reload 🗙